Terminal Aerodrome Forecast
Issued by NWS Green Bay, WI

Home | Current Version | Previous Version | Graphics & Text | Print | Product List | Glossary On
Versions: 1 2 3 4 5 6 7 8 9 10 11 12 13 14 15 16 17 18 19
000
FTUS43 KGRB 180540
TAFGRB
TAF
KGRB 180540Z 1806/1906 29011G18KT P6SM SCT017 BKN028
      TEMPO 1806/1808 BKN017
     FM181500 29014G22KT P6SM SCT028 BKN040
     FM181900 29012G20KT P6SM SCT040
     FM182300 31006KT P6SM BKN050=

USA.gov is the U.S. government's official web portal to all federal, state and local government web resources and services.